createdAt,value
2016-12-25T00:00:37.632Z,1017.09
2016-12-25T00:01:18.136Z,1017.01
2016-12-25T00:01:58.607Z,1017.01
2016-12-25T00:02:39.136Z,1017.01
2016-12-25T00:03:19.674Z,1016.97
2016-12-25T00:04:00.136Z,1016.99
2016-12-25T00:04:40.640Z,1017
2016-12-25T00:05:21.130Z,1016.96
2016-12-25T00:06:01.603Z,1017.01
2016-12-25T00:06:42.121Z,1016.91
2016-12-25T00:07:22.614Z,1016.93
2016-12-25T00:08:03.079Z,1016.93
2016-12-25T00:08:43.559Z,1016.89
2016-12-25T00:09:24.082Z,1016.89
2016-12-25T00:10:04.586Z,1016.89
2016-12-25T00:10:45.061Z,1016.91
2016-12-25T00:11:25.604Z,1016.89
2016-12-25T00:12:06.110Z,1017
2016-12-25T00:12:46.558Z,1017.02
2016-12-25T00:13:27.074Z,1017.04
2016-12-25T00:14:07.511Z,1017.06
2016-12-25T00:14:48.042Z,1017.06
2016-12-25T00:15:28.528Z,1017.13
2016-12-25T00:16:09.019Z,1017.09
2016-12-25T00:16:49.640Z,1017.13
2016-12-25T00:17:30.118Z,1017.07
2016-12-25T00:18:10.597Z,1017.11
2016-12-25T00:18:51.100Z,1017.1
2016-12-25T00:19:31.564Z,1017.09
2016-12-25T00:20:12.043Z,1017.04
2016-12-25T00:20:52.537Z,1017.12
2016-12-25T00:21:32.980Z,1017.12
2016-12-25T00:22:13.485Z,1017.18
2016-12-25T00:22:53.991Z,1017.15
2016-12-25T00:23:34.546Z,1017.21
2016-12-25T00:24:15.000Z,1017.16
2016-12-25T00:24:55.446Z,1017.16
2016-12-25T00:25:36.016Z,1017.1
2016-12-25T00:26:16.465Z,1017.12
2016-12-25T00:26:56.931Z,1017.2
2016-12-25T00:27:37.445Z,1017.21
2016-12-25T00:28:17.920Z,1017.17
2016-12-25T00:28:58.417Z,1017.14
2016-12-25T00:29:38.877Z,1017.17
2016-12-25T00:30:19.363Z,1017.19
2016-12-25T00:30:59.878Z,1017.18
2016-12-25T00:31:40.365Z,1017.18
2016-12-25T00:32:20.831Z,1017.17
2016-12-25T00:33:01.341Z,1017.19
2016-12-25T00:33:41.845Z,1017.17
2016-12-25T00:34:22.291Z,1017.19
2016-12-25T00:35:02.752Z,1017.16
2016-12-25T00:35:43.320Z,1017.11
2016-12-25T00:36:23.760Z,1017.16
2016-12-25T00:37:04.266Z,1017.14
2016-12-25T00:37:44.797Z,1017.2
2016-12-25T00:38:25.297Z,1017.26
2016-12-25T00:39:05.727Z,1017.19
2016-12-25T00:39:46.249Z,1017.15
2016-12-25T00:40:26.730Z,1017.14
2016-12-25T00:41:07.209Z,1017.2
2016-12-25T00:41:47.695Z,1017.17
2016-12-25T00:42:28.201Z,1017.22
2016-12-25T00:43:08.739Z,1017.21
2016-12-25T00:43:49.193Z,1017.27
2016-12-25T00:44:29.648Z,1017.22
2016-12-25T00:45:10.154Z,1017.2
2016-12-25T00:45:50.810Z,1017.2
2016-12-25T00:46:31.322Z,1017.18
2016-12-25T00:47:11.804Z,1017.25
2016-12-25T00:47:52.300Z,1017.3
2016-12-25T00:48:32.855Z,1017.33
2016-12-25T00:49:13.299Z,1017.37
2016-12-25T00:49:53.800Z,1017.42
2016-12-25T00:50:34.302Z,1017.37
2016-12-25T00:51:14.812Z,1017.37
2016-12-25T00:51:55.340Z,1017.33
2016-12-25T00:52:35.785Z,1017.31
2016-12-25T00:53:16.266Z,1017.32
2016-12-25T00:53:56.717Z,1017.29
2016-12-25T00:54:37.217Z,1017.32
2016-12-25T00:55:17.856Z,1017.31
2016-12-25T00:55:58.363Z,1017.33
2016-12-25T00:56:38.859Z,1017.34
2016-12-25T00:57:19.332Z,1017.35
2016-12-25T00:57:59.859Z,1017.32
2016-12-25T00:58:40.328Z,1017.4
2016-12-25T00:59:20.816Z,1017.36
2016-12-25T01:00:01.291Z,1017.38
2016-12-25T01:00:41.925Z,1017.39
2016-12-25T01:01:22.362Z,1017.4
2016-12-25T01:02:02.835Z,1017.39
2016-12-25T01:02:43.365Z,1017.33
2016-12-25T01:03:23.895Z,1017.41
2016-12-25T01:04:04.347Z,1017.37
2016-12-25T01:04:44.828Z,1017.41
2016-12-25T01:05:25.337Z,1017.41
2016-12-25T01:06:05.796Z,1017.38
2016-12-25T01:06:46.276Z,1017.4
2016-12-25T01:07:26.789Z,1017.43
2016-12-25T01:08:07.274Z,1017.41
2016-12-25T01:08:47.777Z,1017.42
2016-12-25T01:09:28.285Z,1017.35
2016-12-25T01:10:08.736Z,1017.41
2016-12-25T01:10:49.275Z,1017.37
2016-12-25T01:11:29.740Z,1017.37
2016-12-25T01:13:42.987Z,1017.39
2016-12-25T01:14:23.441Z,1017.33
2016-12-25T01:15:03.956Z,1017.34
2016-12-25T01:15:44.449Z,1017.39
2016-12-25T01:16:24.959Z,1017.35
2016-12-25T01:17:05.490Z,1017.36
2016-12-25T01:17:45.956Z,1017.41
2016-12-25T01:18:26.454Z,1017.47
2016-12-25T01:19:06.966Z,1017.46
2016-12-25T01:19:47.451Z,1017.45
2016-12-25T01:20:27.911Z,1017.5
2016-12-25T01:21:08.435Z,1017.46
2016-12-25T01:21:48.931Z,1017.49
2016-12-25T01:22:29.382Z,1017.49
2016-12-25T01:23:09.857Z,1017.49
2016-12-25T01:23:50.368Z,1017.54
2016-12-25T01:24:30.897Z,1017.52
2016-12-25T01:25:11.352Z,1017.57
2016-12-25T01:25:51.870Z,1017.63
2016-12-25T01:26:32.328Z,1017.6
2016-12-25T01:27:12.808Z,1017.65
2016-12-25T01:27:53.328Z,1017.64
2016-12-25T01:28:33.818Z,1017.64
2016-12-25T01:29:14.289Z,1017.64
2016-12-25T01:29:54.783Z,1017.65
2016-12-25T01:30:35.262Z,1017.65
2016-12-25T01:31:15.732Z,1017.58
2016-12-25T01:31:56.233Z,1017.53
2016-12-25T01:32:36.725Z,1017.48
2016-12-25T01:33:17.187Z,1017.41
2016-12-25T01:33:57.629Z,1017.43
2016-12-25T01:34:38.109Z,1017.43
2016-12-25T01:35:18.587Z,1017.48
2016-12-25T01:35:59.104Z,1017.54
2016-12-25T01:36:39.565Z,1017.6
2016-12-25T01:37:20.115Z,1017.59
2016-12-25T01:38:00.520Z,1017.59
2016-12-25T01:38:41.065Z,1017.56
2016-12-25T01:39:21.491Z,1017.56
2016-12-25T01:40:02.013Z,1017.53
2016-12-25T01:40:42.466Z,1017.5
2016-12-25T01:41:22.957Z,1017.51
2016-12-25T01:42:03.405Z,1017.5
2016-12-25T01:42:43.910Z,1017.5
2016-12-25T01:43:24.413Z,1017.44
2016-12-25T01:44:04.930Z,1017.48
2016-12-25T01:44:45.403Z,1017.44
2016-12-25T01:45:25.847Z,1017.48
2016-12-25T01:46:06.331Z,1017.46
2016-12-25T01:46:46.975Z,1017.53
2016-12-25T01:47:27.413Z,1017.5
2016-12-25T01:48:07.906Z,1017.5
2016-12-25T01:48:48.448Z,1017.51
2016-12-25T01:49:28.930Z,1017.46
2016-12-25T01:50:09.383Z,1017.46
2016-12-25T01:50:49.866Z,1017.44
2016-12-25T01:51:30.392Z,1017.45
2016-12-25T01:52:10.873Z,1017.53
2016-12-25T01:52:51.359Z,1017.44
2016-12-25T01:53:31.848Z,1017.42
2016-12-25T01:54:12.375Z,1017.47
2016-12-25T01:54:52.866Z,1017.44
2016-12-25T01:55:33.370Z,1017.5
2016-12-25T01:56:13.832Z,1017.5
2016-12-25T01:56:54.380Z,1017.44
2016-12-25T01:57:34.846Z,1017.42
2016-12-25T01:58:15.366Z,1017.45
2016-12-25T01:58:55.859Z,1017.42
2016-12-25T01:59:36.333Z,1017.39
2016-12-25T02:00:16.819Z,1017.33
2016-12-25T02:00:57.309Z,1017.33
2016-12-25T02:01:37.841Z,1017.36
2016-12-25T02:02:18.332Z,1017.33
2016-12-25T02:02:58.816Z,1017.32
2016-12-25T02:03:39.266Z,1017.28
2016-12-25T02:04:19.785Z,1017.33
2016-12-25T02:05:00.288Z,1017.35
2016-12-25T02:05:40.748Z,1017.31
2016-12-25T02:06:21.249Z,1017.32
2016-12-25T02:07:01.731Z,1017.31
2016-12-25T02:07:42.242Z,1017.3
2016-12-25T02:08:22.798Z,1017.34
2016-12-25T02:09:03.249Z,1017.3
2016-12-25T02:09:43.722Z,1017.26
2016-12-25T02:13:29.625Z,1017.22
2016-12-25T02:14:10.120Z,1017.18
2016-12-25T02:14:50.625Z,1017.23
2016-12-25T02:15:31.125Z,1017.19
2016-12-25T02:16:11.648Z,1017.16
2016-12-25T02:16:52.124Z,1017.16
2016-12-25T02:17:32.591Z,1017.19
2016-12-25T02:18:13.105Z,1017.11
2016-12-25T02:18:53.637Z,1017.07
2016-12-25T02:19:34.103Z,1017.14
2016-12-25T02:20:14.637Z,1017.07
2016-12-25T02:20:55.074Z,1017.11
2016-12-25T02:21:35.601Z,1017.13
2016-12-25T02:22:16.078Z,1017.12
2016-12-25T02:22:56.551Z,1017.1
2016-12-25T02:23:37.060Z,1017.03
2016-12-25T02:24:17.576Z,1017.05
2016-12-25T02:24:58.062Z,1017.11
2016-12-25T02:25:38.551Z,1017.03
2016-12-25T02:26:19.039Z,1016.99
2016-12-25T02:26:59.556Z,1016.97
2016-12-25T02:27:40.051Z,1016.93
2016-12-25T02:28:20.535Z,1016.96
2016-12-25T02:29:01.052Z,1016.95
2016-12-25T02:29:41.489Z,1017.02
2016-12-25T02:30:22.005Z,1017
2016-12-25T02:31:02.484Z,1017.01
2016-12-25T02:31:42.923Z,1017.04
2016-12-25T02:32:23.417Z,1016.95
2016-12-25T02:33:03.886Z,1016.97
2016-12-25T02:33:44.374Z,1016.97
2016-12-25T02:34:24.850Z,1016.96
2016-12-25T02:35:05.347Z,1017.04
2016-12-25T02:35:45.871Z,1016.99
2016-12-25T02:36:26.329Z,1016.94
2016-12-25T02:37:06.840Z,1016.93
2016-12-25T02:37:47.291Z,1016.93
2016-12-25T02:38:27.766Z,1016.95
2016-12-25T02:39:08.304Z,1017
2016-12-25T02:39:48.814Z,1016.99
2016-12-25T02:40:29.312Z,1016.96
2016-12-25T02:41:09.750Z,1017
2016-12-25T02:41:50.246Z,1017.06
2016-12-25T02:42:30.723Z,1017.08
2016-12-25T02:43:11.233Z,1017.05
2016-12-25T02:43:51.695Z,1017.08
2016-12-25T02:44:32.195Z,1017.1
2016-12-25T02:45:12.675Z,1017.11
2016-12-25T02:45:53.170Z,1017.18
2016-12-25T02:46:33.619Z,1017.14
2016-12-25T02:47:14.147Z,1017.23
2016-12-25T02:47:54.608Z,1017.18
2016-12-25T02:48:35.108Z,1017.17
2016-12-25T02:49:15.589Z,1017.18
2016-12-25T02:49:56.135Z,1017.16
2016-12-25T02:50:36.564Z,1017.13
2016-12-25T02:51:17.060Z,1017.11
2016-12-25T02:51:57.568Z,1017.08
2016-12-25T02:52:38.025Z,1017.07
2016-12-25T02:53:18.502Z,1017.07
2016-12-25T02:53:58.972Z,1017.09
2016-12-25T02:54:39.507Z,1017.11
2016-12-25T02:55:19.997Z,1017.08
2016-12-25T02:56:00.486Z,1017.09
2016-12-25T02:56:40.931Z,1017.03
2016-12-25T02:57:21.455Z,1017.04
2016-12-25T02:58:01.937Z,1017.04
2016-12-25T02:58:42.405Z,1016.96
2016-12-25T02:59:22.911Z,1016.97
2016-12-25T03:00:03.403Z,1016.97
2016-12-25T03:00:43.890Z,1016.95
2016-12-25T03:01:24.346Z,1016.94
2016-12-25T03:02:04.834Z,1016.98
2016-12-25T03:02:45.325Z,1016.96
2016-12-25T03:03:25.878Z,1016.94
2016-12-25T03:04:06.342Z,1016.89
2016-12-25T03:04:46.809Z,1016.83
2016-12-25T03:05:27.336Z,1016.89
2016-12-25T03:06:07.798Z,1016.82
2016-12-25T03:06:48.332Z,1016.88
2016-12-25T03:07:28.799Z,1016.85
2016-12-25T03:08:09.253Z,1016.84
2016-12-25T03:11:55.173Z,1016.88
2016-12-25T03:12:35.692Z,1016.9
2016-12-25T03:13:16.200Z,1016.89
2016-12-25T03:13:56.654Z,1016.84
2016-12-25T03:14:37.127Z,1016.84
2016-12-25T03:15:17.627Z,1016.83
2016-12-25T03:15:58.088Z,1016.79
2016-12-25T03:16:38.576Z,1016.8
2016-12-25T03:17:19.093Z,1016.81
2016-12-25T03:17:59.632Z,1016.77
2016-12-25T03:18:40.073Z,1016.78
2016-12-25T03:19:20.605Z,1016.77
2016-12-25T03:20:01.092Z,1016.78
2016-12-25T03:20:41.612Z,1016.76
2016-12-25T03:21:22.053Z,1016.75
2016-12-25T03:22:02.551Z,1016.69
2016-12-25T03:22:43.093Z,1016.68
2016-12-25T03:23:23.509Z,1016.62
2016-12-25T03:24:04.021Z,1016.64
2016-12-25T03:24:44.511Z,1016.59
2016-12-25T03:25:25.002Z,1016.62
2016-12-25T03:26:05.485Z,1016.56
2016-12-25T03:26:46.077Z,1016.54
2016-12-25T03:27:26.544Z,1016.49
2016-12-25T03:28:07.022Z,1016.5
2016-12-25T03:28:47.472Z,1016.41
2016-12-25T03:29:27.974Z,1016.47
2016-12-25T03:30:08.476Z,1016.45
2016-12-25T03:30:48.997Z,1016.46
2016-12-25T03:31:29.437Z,1016.46
2016-12-25T03:32:09.919Z,1016.43
2016-12-25T03:32:50.391Z,1016.47
2016-12-25T03:33:31.014Z,1016.5
2016-12-25T03:34:11.481Z,1016.52
2016-12-25T03:34:51.937Z,1016.48
2016-12-25T03:35:32.451Z,1016.55
2016-12-25T03:36:12.910Z,1016.54
2016-12-25T03:36:53.424Z,1016.56
2016-12-25T03:37:33.891Z,1016.56
2016-12-25T03:38:14.358Z,1016.57
2016-12-25T03:38:54.813Z,1016.59
2016-12-25T03:39:35.366Z,1016.64
2016-12-25T03:40:15.815Z,1016.6
2016-12-25T03:40:56.308Z,1016.66
2016-12-25T03:41:36.810Z,1016.62
2016-12-25T03:42:17.342Z,1016.64
2016-12-25T03:42:57.821Z,1016.66
2016-12-25T03:43:38.273Z,1016.57
2016-12-25T03:44:18.767Z,1016.63
2016-12-25T03:44:59.306Z,1016.57
2016-12-25T03:45:39.758Z,1016.65
2016-12-25T03:46:20.251Z,1016.57
2016-12-25T03:47:00.698Z,1016.58
2016-12-25T03:47:41.278Z,1016.63
2016-12-25T03:48:21.728Z,1016.61
2016-12-25T03:49:02.282Z,1016.59
2016-12-25T03:49:42.778Z,1016.59
2016-12-25T03:50:23.205Z,1016.62
2016-12-25T03:51:03.703Z,1016.56
2016-12-25T03:51:44.237Z,1016.6
2016-12-25T03:52:24.730Z,1016.61
2016-12-25T03:53:05.249Z,1016.59
2016-12-25T03:53:45.696Z,1016.61
2016-12-25T03:54:26.178Z,1016.57
2016-12-25T03:55:06.687Z,1016.57
2016-12-25T03:55:47.179Z,1016.51
2016-12-25T03:56:27.709Z,1016.49
2016-12-25T03:57:08.178Z,1016.46
2016-12-25T03:57:48.689Z,1016.41
2016-12-25T03:58:29.154Z,1016.41
2016-12-25T03:59:09.712Z,1016.34
2016-12-25T03:59:50.161Z,1016.38
2016-12-25T04:00:30.638Z,1016.33
2016-12-25T04:01:11.103Z,1016.32
2016-12-25T04:01:51.673Z,1016.32
2016-12-25T04:02:32.136Z,1016.19
2016-12-25T04:03:12.685Z,1016.19
2016-12-25T04:03:53.163Z,1016.2
2016-12-25T04:04:33.666Z,1016.11
2016-12-25T04:05:14.144Z,1016.14
2016-12-25T04:05:54.604Z,1016.14
2016-12-25T04:06:35.079Z,1016.19
2016-12-25T04:08:48.318Z,1016.29
2016-12-25T04:09:28.809Z,1016.3
2016-12-25T04:10:09.290Z,1016.37
2016-12-25T04:10:49.777Z,1016.37
2016-12-25T04:11:30.278Z,1016.34
2016-12-25T04:12:10.768Z,1016.39
2016-12-25T04:12:51.262Z,1016.36
2016-12-25T04:13:31.773Z,1016.38
2016-12-25T04:14:12.272Z,1016.36
2016-12-25T04:14:52.776Z,1016.39
2016-12-25T04:15:33.286Z,1016.3
2016-12-25T04:16:13.747Z,1016.33
2016-12-25T04:16:54.283Z,1016.31
2016-12-25T04:17:34.758Z,1016.31
2016-12-25T04:18:15.322Z,1016.29
2016-12-25T04:18:55.740Z,1016.32
2016-12-25T04:19:36.249Z,1016.38
2016-12-25T04:20:16.727Z,1016.39
2016-12-25T04:20:57.191Z,1016.35
2016-12-25T04:21:37.725Z,1016.32
2016-12-25T04:22:18.202Z,1016.39
2016-12-25T04:22:58.666Z,1016.34
2016-12-25T04:23:39.175Z,1016.35
2016-12-25T04:24:19.648Z,1016.39
2016-12-25T04:25:00.134Z,1016.4
2016-12-25T04:25:40.586Z,1016.38
2016-12-25T04:26:21.081Z,1016.45
2016-12-25T04:27:01.564Z,1016.42
2016-12-25T04:27:42.067Z,1016.5
2016-12-25T04:28:22.611Z,1016.44
2016-12-25T04:29:03.245Z,1016.46
2016-12-25T04:29:43.793Z,1016.49
2016-12-25T04:30:24.281Z,1016.55
2016-12-25T04:31:04.752Z,1016.55
2016-12-25T04:31:45.270Z,1016.58
2016-12-25T04:32:25.729Z,1016.59
2016-12-25T04:33:06.233Z,1016.62
2016-12-25T04:33:46.771Z,1016.65
2016-12-25T04:34:27.221Z,1016.57
2016-12-25T04:35:07.723Z,1016.6
2016-12-25T04:35:48.208Z,1016.65
2016-12-25T04:36:28.693Z,1016.63
2016-12-25T04:37:09.172Z,1016.55
2016-12-25T04:37:49.663Z,1016.65
2016-12-25T04:38:30.131Z,1016.58
2016-12-25T04:39:10.663Z,1016.64
2016-12-25T04:39:51.095Z,1016.64
2016-12-25T04:40:31.572Z,1016.67
2016-12-25T04:41:12.084Z,1016.78
2016-12-25T04:41:52.562Z,1016.77
2016-12-25T04:42:33.059Z,1016.75
2016-12-25T04:43:13.534Z,1016.76
2016-12-25T04:43:54.035Z,1016.8
2016-12-25T04:44:34.515Z,1016.83
2016-12-25T04:45:15.027Z,1016.85
2016-12-25T04:45:55.528Z,1016.8
2016-12-25T04:46:36.003Z,1016.84
2016-12-25T04:47:16.493Z,1016.77
2016-12-25T04:47:56.938Z,1016.72
2016-12-25T04:48:37.470Z,1016.76
2016-12-25T04:49:17.947Z,1016.83
2016-12-25T04:49:58.448Z,1016.78
2016-12-25T04:50:38.953Z,1016.75
2016-12-25T04:51:19.412Z,1016.82
2016-12-25T04:51:59.904Z,1016.78
2016-12-25T04:52:40.429Z,1016.71
2016-12-25T04:53:20.938Z,1016.71
2016-12-25T04:54:01.423Z,1016.69
2016-12-25T04:54:41.920Z,1016.73
2016-12-25T04:55:22.399Z,1016.7
2016-12-25T04:56:02.901Z,1016.68
2016-12-25T04:56:43.426Z,1016.68
2016-12-25T04:57:23.967Z,1016.68
2016-12-25T04:58:04.466Z,1016.66
2016-12-25T04:58:45.018Z,1016.66
2016-12-25T04:59:25.426Z,1016.65
2016-12-25T05:00:05.930Z,1016.65
2016-12-25T05:00:46.424Z,1016.7
2016-12-25T05:01:26.888Z,1016.63
2016-12-25T05:02:07.370Z,1016.67
2016-12-25T05:02:47.865Z,1016.67
2016-12-25T05:03:28.307Z,1016.64
2016-12-25T05:04:08.921Z,1016.61
2016-12-25T05:04:49.375Z,1016.62
2016-12-25T05:07:02.574Z,1016.53
2016-12-25T05:07:43.078Z,1016.55
2016-12-25T05:08:23.553Z,1016.54
2016-12-25T05:09:04.158Z,1016.52
2016-12-25T05:09:44.642Z,1016.54
2016-12-25T05:10:25.174Z,1016.52
2016-12-25T05:11:05.681Z,1016.52
2016-12-25T05:11:46.162Z,1016.42
2016-12-25T05:12:26.715Z,1016.47
2016-12-25T05:13:07.168Z,1016.53
2016-12-25T05:13:47.746Z,1016.49
2016-12-25T05:14:28.179Z,1016.53
2016-12-25T05:15:08.683Z,1016.62
2016-12-25T05:15:49.131Z,1016.63
2016-12-25T05:16:29.653Z,1016.71
2016-12-25T05:17:10.121Z,1016.71
2016-12-25T05:17:50.603Z,1016.74
2016-12-25T05:18:31.082Z,1016.69
2016-12-25T05:19:11.582Z,1016.66
2016-12-25T05:19:52.085Z,1016.64
2016-12-25T05:20:32.542Z,1016.62
2016-12-25T05:21:13.070Z,1016.6
2016-12-25T05:21:53.553Z,1016.59
2016-12-25T05:22:34.066Z,1016.66
2016-12-25T05:23:14.534Z,1016.68
2016-12-25T05:23:55.020Z,1016.7
2016-12-25T05:24:35.525Z,1016.73
2016-12-25T05:25:16.025Z,1016.75
2016-12-25T05:25:56.514Z,1016.65
2016-12-25T05:26:37.024Z,1016.63
2016-12-25T05:27:17.534Z,1016.61
2016-12-25T05:27:58.021Z,1016.67
2016-12-25T05:28:38.504Z,1016.74
2016-12-25T05:29:19.015Z,1016.77
2016-12-25T05:29:59.508Z,1016.85
2016-12-25T05:30:40.044Z,1016.84
2016-12-25T05:31:20.514Z,1016.8
2016-12-25T05:32:01.011Z,1016.77
2016-12-25T05:32:41.532Z,1016.72
2016-12-25T05:33:22.021Z,1016.79
2016-12-25T05:34:02.527Z,1016.81
2016-12-25T05:34:43.052Z,1016.83
2016-12-25T05:35:23.547Z,1016.87
2016-12-25T05:36:04.047Z,1016.85
2016-12-25T05:36:44.519Z,1016.85
2016-12-25T05:37:25.012Z,1016.81
2016-12-25T05:38:05.503Z,1016.82
2016-12-25T05:38:45.970Z,1016.82
2016-12-25T05:39:26.457Z,1016.79
2016-12-25T05:40:06.918Z,1016.79
2016-12-25T05:40:47.415Z,1016.81
2016-12-25T05:41:27.908Z,1016.82
2016-12-25T05:42:08.438Z,1016.83
2016-12-25T05:42:48.882Z,1016.84
2016-12-25T05:43:29.434Z,1016.83
2016-12-25T05:44:09.869Z,1016.81
2016-12-25T05:44:50.345Z,1016.93
2016-12-25T05:45:30.787Z,1016.93
2016-12-25T05:46:11.303Z,1016.9
2016-12-25T05:46:51.785Z,1016.89
2016-12-25T05:47:32.289Z,1016.94
2016-12-25T05:48:12.821Z,1016.98
2016-12-25T05:48:53.305Z,1017
2016-12-25T05:49:33.769Z,1017
2016-12-25T05:50:14.230Z,1016.99
2016-12-25T05:50:54.751Z,1017
2016-12-25T05:51:35.276Z,1017
2016-12-25T05:52:15.782Z,1017
2016-12-25T05:52:56.252Z,1017.01
2016-12-25T05:53:36.719Z,1016.97
2016-12-25T05:54:17.214Z,1016.99
2016-12-25T05:54:57.721Z,1016.94
2016-12-25T05:55:38.286Z,1016.9
2016-12-25T05:56:18.773Z,1016.9
2016-12-25T05:56:59.273Z,1016.92
2016-12-25T05:57:39.747Z,1016.88
2016-12-25T05:58:20.236Z,1016.91
2016-12-25T05:59:00.835Z,1016.93
2016-12-25T05:59:41.313Z,1016.92
2016-12-25T06:00:21.759Z,1016.93
2016-12-25T06:01:02.260Z,1016.95
2016-12-25T06:01:42.758Z,1016.89
2016-12-25T06:02:23.255Z,1016.82
2016-12-25T06:03:03.741Z,1016.82
2016-12-25T06:05:16.943Z,1016.82
2016-12-25T06:05:57.432Z,1016.85
2016-12-25T06:06:37.991Z,1016.83
2016-12-25T06:07:18.408Z,1016.85
2016-12-25T06:07:58.904Z,1016.84
2016-12-25T06:08:39.436Z,1016.86
2016-12-25T06:09:19.931Z,1016.85
2016-12-25T06:10:00.443Z,1016.78
2016-12-25T06:10:40.921Z,1016.83
2016-12-25T06:11:21.403Z,1016.82
2016-12-25T06:12:01.919Z,1016.82
2016-12-25T06:12:42.367Z,1016.82
2016-12-25T06:13:22.835Z,1016.73
2016-12-25T06:14:03.317Z,1016.72
2016-12-25T06:14:43.819Z,1016.71
2016-12-25T06:15:24.320Z,1016.71
2016-12-25T06:16:04.824Z,1016.69
2016-12-25T06:16:45.306Z,1016.65
2016-12-25T06:17:25.752Z,1016.66
2016-12-25T06:18:06.326Z,1016.68
2016-12-25T06:18:46.810Z,1016.68
2016-12-25T06:19:27.323Z,1016.69
2016-12-25T06:20:07.837Z,1016.7
2016-12-25T06:20:48.319Z,1016.67
2016-12-25T06:21:28.860Z,1016.69
2016-12-25T06:22:09.280Z,1016.68
2016-12-25T06:22:49.821Z,1016.66
2016-12-25T06:23:30.250Z,1016.64
2016-12-25T06:24:10.762Z,1016.58
2016-12-25T06:24:51.234Z,1016.59
2016-12-25T06:25:31.769Z,1016.6
2016-12-25T06:26:12.243Z,1016.58
2016-12-25T06:26:52.728Z,1016.63
2016-12-25T06:27:33.242Z,1016.55
2016-12-25T06:28:13.704Z,1016.53
2016-12-25T06:28:54.188Z,1016.48
2016-12-25T06:29:34.673Z,1016.47
2016-12-25T06:30:15.203Z,1016.47
2016-12-25T06:30:55.739Z,1016.54
2016-12-25T06:31:36.262Z,1016.52
2016-12-25T06:32:16.758Z,1016.44
2016-12-25T06:32:57.265Z,1016.52
2016-12-25T06:33:37.815Z,1016.41
2016-12-25T06:34:18.290Z,1016.38
2016-12-25T06:34:58.809Z,1016.37
2016-12-25T06:35:39.346Z,1016.34
2016-12-25T06:36:19.814Z,1016.37
2016-12-25T06:37:00.312Z,1016.34
2016-12-25T06:37:40.814Z,1016.37
2016-12-25T06:38:21.299Z,1016.33
2016-12-25T06:39:01.759Z,1016.3
2016-12-25T06:39:42.255Z,1016.28
2016-12-25T06:40:22.769Z,1016.33
2016-12-25T06:41:03.242Z,1016.3
2016-12-25T06:41:43.722Z,1016.32
2016-12-25T06:42:24.206Z,1016.27
2016-12-25T06:43:04.760Z,1016.32
2016-12-25T06:43:45.232Z,1016.27
2016-12-25T06:44:25.708Z,1016.24
2016-12-25T06:45:06.203Z,1016.26
2016-12-25T06:45:46.696Z,1016.25
2016-12-25T06:46:27.143Z,1016.33
2016-12-25T06:47:07.652Z,1016.36
2016-12-25T06:47:48.134Z,1016.38
2016-12-25T06:48:28.599Z,1016.35
2016-12-25T06:49:09.122Z,1016.32
2016-12-25T06:49:49.594Z,1016.32
2016-12-25T06:50:30.136Z,1016.3
2016-12-25T06:51:10.616Z,1016.26
2016-12-25T06:51:51.117Z,1016.26
2016-12-25T06:52:31.600Z,1016.21
2016-12-25T06:53:12.073Z,1016.2
2016-12-25T06:53:52.571Z,1016.13
2016-12-25T06:54:33.101Z,1016.15
2016-12-25T06:55:13.573Z,1016.13
2016-12-25T06:55:54.065Z,1016.1
2016-12-25T06:56:34.561Z,1016.12
2016-12-25T06:57:15.056Z,1016.13
2016-12-25T06:57:55.525Z,1016.11
2016-12-25T06:58:35.960Z,1016.16
2016-12-25T06:59:16.451Z,1016.15
2016-12-25T06:59:56.922Z,1016.17
2016-12-25T07:00:37.447Z,1016.19
2016-12-25T07:01:18.007Z,1016.22
2016-12-25T07:01:58.493Z,1016.19
2016-12-25T07:04:11.707Z,1016.18
2016-12-25T07:04:52.206Z,1016.24
2016-12-25T07:05:32.704Z,1016.3
2016-12-25T07:06:13.205Z,1016.27
2016-12-25T07:06:53.688Z,1016.25
2016-12-25T07:07:34.189Z,1016.24
2016-12-25T07:08:14.700Z,1016.28
2016-12-25T07:08:55.208Z,1016.28
2016-12-25T07:09:35.702Z,1016.21
2016-12-25T07:10:16.227Z,1016.32
2016-12-25T07:10:56.720Z,1016.29
2016-12-25T07:11:37.251Z,1016.29
2016-12-25T07:12:17.709Z,1016.28
2016-12-25T07:12:58.246Z,1016.28
2016-12-25T07:13:38.711Z,1016.28
2016-12-25T07:14:19.183Z,1016.3
2016-12-25T07:14:59.711Z,1016.28
2016-12-25T07:15:40.240Z,1016.36
2016-12-25T07:16:20.693Z,1016.32
2016-12-25T07:17:01.144Z,1016.43
2016-12-25T07:17:41.699Z,1016.4
2016-12-25T07:18:22.216Z,1016.42
2016-12-25T07:19:02.627Z,1016.36
2016-12-25T07:19:43.081Z,1016.38
2016-12-25T07:20:23.566Z,1016.36
2016-12-25T07:21:04.076Z,1016.39
2016-12-25T07:21:44.569Z,1016.43
2016-12-25T07:22:25.030Z,1016.34
2016-12-25T07:23:05.531Z,1016.39
2016-12-25T07:23:46.047Z,1016.41
2016-12-25T07:24:26.570Z,1016.39
2016-12-25T07:25:07.038Z,1016.49
2016-12-25T07:25:47.536Z,1016.48
2016-12-25T07:26:27.993Z,1016.47
2016-12-25T07:27:08.504Z,1016.5
2016-12-25T07:27:49.008Z,1016.52
2016-12-25T07:28:29.477Z,1016.5
2016-12-25T07:29:10.021Z,1016.53
2016-12-25T07:29:50.481Z,1016.53
2016-12-25T07:30:30.976Z,1016.57
2016-12-25T07:31:11.419Z,1016.55
2016-12-25T07:31:51.915Z,1016.52
2016-12-25T07:32:32.410Z,1016.57
2016-12-25T07:33:12.919Z,1016.49
2016-12-25T07:33:53.434Z,1016.54
2016-12-25T07:34:33.955Z,1016.51
2016-12-25T07:35:14.395Z,1016.48
2016-12-25T07:35:54.970Z,1016.48
2016-12-25T07:36:35.510Z,1016.44
2016-12-25T07:37:15.980Z,1016.43
2016-12-25T07:37:56.472Z,1016.42
2016-12-25T07:38:36.942Z,1016.37
2016-12-25T07:39:17.470Z,1016.35
2016-12-25T07:39:57.927Z,1016.41
2016-12-25T07:40:38.449Z,1016.34
2016-12-25T07:41:18.970Z,1016.41
2016-12-25T07:41:59.465Z,1016.46
2016-12-25T07:42:39.948Z,1016.53
2016-12-25T07:43:20.451Z,1016.49
2016-12-25T07:44:00.908Z,1016.48
2016-12-25T07:44:41.400Z,1016.5
2016-12-25T07:45:21.894Z,1016.49
2016-12-25T07:46:02.396Z,1016.44
2016-12-25T07:46:42.824Z,1016.5
2016-12-25T07:47:23.341Z,1016.53
2016-12-25T07:48:03.808Z,1016.47
2016-12-25T07:48:44.313Z,1016.49
2016-12-25T07:49:24.814Z,1016.51
2016-12-25T07:50:05.268Z,1016.51
2016-12-25T07:50:45.788Z,1016.51
2016-12-25T07:51:26.257Z,1016.53
2016-12-25T07:52:06.765Z,1016.5
2016-12-25T07:52:47.247Z,1016.57
2016-12-25T07:53:27.717Z,1016.6
2016-12-25T07:54:08.198Z,1016.64
2016-12-25T07:54:48.655Z,1016.6
2016-12-25T07:55:29.185Z,1016.54
2016-12-25T07:56:09.665Z,1016.63
2016-12-25T07:56:50.164Z,1016.59
2016-12-25T07:57:30.658Z,1016.57
2016-12-25T07:58:11.153Z,1016.56
2016-12-25T07:58:51.601Z,1016.63
2016-12-25T07:59:32.123Z,1016.61
2016-12-25T08:01:45.353Z,1016.58
2016-12-25T08:02:25.860Z,1016.63
2016-12-25T08:03:06.350Z,1016.71
2016-12-25T08:03:46.865Z,1016.6
2016-12-25T08:04:27.337Z,1016.65
2016-12-25T08:05:07.826Z,1016.58
2016-12-25T08:05:48.292Z,1016.56
2016-12-25T08:06:28.785Z,1016.6
2016-12-25T08:07:09.271Z,1016.54
2016-12-25T08:07:49.798Z,1016.61
2016-12-25T08:08:30.439Z,1016.62
2016-12-25T08:09:10.940Z,1016.58
2016-12-25T08:09:51.441Z,1016.52
2016-12-25T08:10:31.918Z,1016.56
2016-12-25T08:11:12.394Z,1016.54
2016-12-25T08:11:52.877Z,1016.57
2016-12-25T08:12:33.350Z,1016.53
2016-12-25T08:13:13.823Z,1016.66
2016-12-25T08:13:54.325Z,1016.59
2016-12-25T08:14:34.824Z,1016.65
2016-12-25T08:15:15.319Z,1016.68
2016-12-25T08:15:55.783Z,1016.69
2016-12-25T08:16:36.252Z,1016.74
2016-12-25T08:17:16.727Z,1016.78
2016-12-25T08:17:57.279Z,1016.7
2016-12-25T08:18:37.701Z,1016.77
2016-12-25T08:19:18.165Z,1016.69
2016-12-25T08:19:58.635Z,1016.72
2016-12-25T08:20:39.104Z,1016.62
2016-12-25T08:21:19.635Z,1016.71
2016-12-25T08:22:00.141Z,1016.65
2016-12-25T08:22:40.661Z,1016.6
2016-12-25T08:23:21.132Z,1016.61
2016-12-25T08:24:01.570Z,1016.67
2016-12-25T08:24:42.056Z,1016.66
2016-12-25T08:25:22.586Z,1016.62
2016-12-25T08:26:03.032Z,1016.59
2016-12-25T08:26:43.589Z,1016.56
2016-12-25T08:27:23.983Z,1016.73